Time;durP1;ratioP1;P1;durP2;ratioP2;P2;SDS_P1;SDS_P2;PMS_P1;PMS_P2;Temp;Humidity;BMP_temperature;BMP_pressure;BME280_temperature;BME280_humidity;BME280_pressure;Samples;Min_cycle;Max_cycle;Signal;HPM_P1;HPM_P2
2023/04/07 00:02:19;;;;;;;;;;;;;;;5.67;88.57;96445.66;5034608;28;20352;-74
2023/04/07 00:04:45;;;;;;;;;;;;;;;5.68;88.48;96441.25;5034484;28;19944;-75
2023/04/07 00:07:11;;;;;;;;;;;;;;;5.69;88.07;96438.47;5034394;28;19939;-74
2023/04/07 00:09:37;;;;;;;;;;;;;;;5.68;88.86;96441.25;5034449;28;19982;-71
2023/04/07 00:12:03;;;;;;;;;;;;;;;5.69;90.08;96446.28;5034965;28;19946;-71
2023/04/07 00:14:29;;;;;;;;;;;;;;;5.69;88.98;96445.44;5034315;28;19974;-82
2023/04/07 00:16:55;;;;;;;;;;;;;;;5.72;90.46;96445.09;5034478;28;20358;-82
2023/04/07 00:19:20;;;;;;;;;;;;;;;5.75;89.17;96441.31;5034588;28;20340;-81
2023/04/07 00:21:46;;;;;;;;;;;;;;;5.76;88.47;96435.91;5034299;28;19953;-82
2023/04/07 00:24:12;;;;;;;;;;;;;;;5.75;89.65;96443.91;5034184;28;19942;-81
2023/04/07 00:26:38;;;;;;;;;;;;;;;5.73;88.72;96436.28;5034190;28;20328;-81
2023/04/07 00:29:04;;;;;;;;;;;;;;;5.74;88.11;96426.69;5034922;28;19957;-73
2023/04/07 00:31:29;;;;;;;;;;;;;;;5.74;89.85;96439.69;5034418;28;19937;-71
2023/04/07 00:33:56;;;;;;;;;;;;;;;5.74;89.67;96429.28;5034057;28;19941;-71
2023/04/07 00:36:22;;;;;;;;;;;;;;;5.75;89.08;96423.09;5033992;28;20326;-71
2023/04/07 00:38:48;;;;;;;;;;;;;;;5.74;88.86;96417.09;5034088;28;20428;-72
2023/04/07 00:41:14;;;;;;;;;;;;;;;5.71;91.37;96422.66;5033992;28;19940;-70
2023/04/07 00:43:40;;;;;;;;;;;;;;;5.69;89.85;96406.41;5034459;28;19944;-70
2023/04/07 00:46:06;;;;;;;;;;;;;;;5.70;89.81;96413.25;5033855;28;19991;-81
2023/04/07 00:48:32;;;;;;;;;;;;;;;5.71;90.06;96399.22;5034338;28;20004;-71
2023/04/07 00:50:58;;;;;;;;;;;;;;;5.71;91.52;96401.84;5033886;28;19947;-79
2023/04/07 00:53:24;;;;;;;;;;;;;;;5.70;90.00;96389.81;5033778;28;19948;-78
2023/04/07 00:55:50;;;;;;;;;;;;;;;5.71;90.14;96388.81;5016043;28;19944;-79
2023/04/07 00:58:15;;;;;;;;;;;;;;;5.68;90.50;96384.00;5033736;28;19945;-79
2023/04/07 01:00:44;;;;;;;;;;;;;;;5.67;89.34;96375.41;5033777;28;19942;-79
2023/04/07 01:03:17;;;;;;;;;;;;;;;5.68;90.41;96381.41;5033717;28;20306;-79
2023/04/07 01:06:13;;;;;;;;;;;;;;;5.63;90.58;96391.59;5034539;28;20409;-75
2023/04/07 01:09:02;;;;;;;;;;;;;;;5.62;89.16;96376.94;5007829;28;19980;-73
2023/04/07 01:11:43;;;;;;;;;;;;;;;5.58;90.86;96370.50;5028122;28;19951;-73
2023/04/07 01:14:12;;;;;;;;;;;;;;;5.55;89.60;96363.09;5033678;28;19999;-73
2023/04/07 01:16:44;;;;;;;;;;;;;;;5.58;91.12;96375.72;5034022;28;19958;-73
2023/04/07 01:19:33;;;;;;;;;;;;;;;5.57;90.58;96369.72;5034359;28;20334;-72
2023/04/07 01:22:00;;;;;;;;;;;;;;;5.60;90.22;96366.72;5027858;28;19944;-73
2023/04/07 01:24:39;;;;;;;;;;;;;;;5.61;91.63;96367.56;5033752;28;20316;-81
2023/04/07 01:27:14;;;;;;;;;;;;;;;5.57;90.08;96354.13;5037508;28;19940;-76
2023/04/07 01:29:46;;;;;;;;;;;;;;;5.52;90.31;96358.25;5038157;28;19956;-75
2023/04/07 01:32:13;;;;;;;;;;;;;;;5.53;91.01;96360.69;5038320;28;20268;-75
2023/04/07 01:34:39;;;;;;;;;;;;;;;5.56;91.20;96362.88;5037668;28;19940;-76
2023/04/07 01:37:06;;;;;;;;;;;;;;;5.58;90.42;96357.50;5037386;28;19960;-75
2023/04/07 01:39:32;;;;;;;;;;;;;;;5.61;91.59;96362.34;5037861;28;19939;-75
2023/04/07 01:42:01;;;;;;;;;;;;;;;5.56;91.11;96355.09;5020083;28;19945;-77
2023/04/07 01:44:27;;;;;;;;;;;;;;;5.55;90.03;96348.28;5038007;28;19951;-81
2023/04/07 01:46:54;;;;;;;;;;;;;;;5.54;94.10;96367.47;5037320;28;19940;-82
2023/04/07 01:49:20;;;;;;;;;;;;;;;5.49;90.61;96334.22;5036993;28;19960;-82
2023/04/07 01:51:49;;;;;;;;;;;;;;;5.49;90.81;96336.84;5037115;28;20402;-81
2023/04/07 01:54:15;;;;;;;;;;;;;;;5.46;89.84;96328.63;5037225;28;19951;-82
2023/04/07 01:56:41;;;;;;;;;;;;;;;5.46;90.54;96337.22;5036931;28;19945;-81
2023/04/07 01:59:07;;;;;;;;;;;;;;;5.52;91.15;96337.44;5019367;28;20516;-82
2023/04/07 02:01:33;;;;;;;;;;;;;;;5.58;90.76;96339.31;5036963;28;19943;-70
2023/04/07 02:04:15;;;;;;;;;;;;;;;5.61;90.93;96339.72;5037074;28;19951;-70
2023/04/07 02:06:43;;;;;;;;;;;;;;;5.65;88.64;96327.16;5036842;28;19956;-70
2023/04/07 02:09:10;;;;;;;;;;;;;;;5.67;90.49;96332.97;5036679;28;19963;-70
2023/04/07 02:11:36;;;;;;;;;;;;;;;5.66;90.40;96333.97;5036750;28;19943;-70
2023/04/07 02:14:03;;;;;;;;;;;;;;;5.57;91.03;96329.91;5018982;28;20313;-71
2023/04/07 02:16:30;;;;;;;;;;;;;;;5.53;90.47;96334.66;5036898;28;19947;-70
2023/04/07 02:18:56;;;;;;;;;;;;;;;5.53;90.34;96329.47;5036783;28;19943;-74
2023/04/07 02:21:22;;;;;;;;;;;;;;;5.51;89.28;96313.25;5036610;28;19940;-81
2023/04/07 02:23:48;;;;;;;;;;;;;;;5.53;89.86;96326.88;5036454;28;19941;-81
2023/04/07 02:26:14;;;;;;;;;;;;;;;5.55;91.02;96335.28;5037294;28;19949;-81
2023/04/07 02:28:40;;;;;;;;;;;;;;;5.55;89.11;96313.69;5036368;28;19943;-80
2023/04/07 02:31:06;;;;;;;;;;;;;;;5.58;90.37;96313.28;5036376;28;20106;-81
2023/04/07 02:33:32;;;;;;;;;;;;;;;5.59;89.56;96313.09;5036898;28;19950;-81
2023/04/07 02:35:58;;;;;;;;;;;;;;;5.58;90.30;96314.09;5018275;28;19963;-82
2023/04/07 02:38:23;;;;;;;;;;;;;;;5.60;89.71;96306.09;5036439;28;19943;-78
2023/04/07 02:40:49;;;;;;;;;;;;;;;5.63;90.23;96303.94;5036240;28;19942;-73
2023/04/07 02:43:16;;;;;;;;;;;;;;;5.66;88.75;96300.13;5036061;28;19941;-73
2023/04/07 02:45:42;;;;;;;;;;;;;;;5.69;89.08;96299.75;5036047;28;19962;-73
2023/04/07 02:48:08;;;;;;;;;;;;;;;5.69;89.19;96304.94;5036144;28;19949;-73
2023/04/07 02:50:34;;;;;;;;;;;;;;;5.68;89.91;96305.97;5036105;28;19963;-73
2023/04/07 02:53:00;;;;;;;;;;;;;;;5.67;88.16;96296.56;5035936;28;20417;-73
2023/04/07 02:55:25;;;;;;;;;;;;;;;5.64;87.45;96296.94;5036119;28;19944;-81
2023/04/07 02:57:51;;;;;;;;;;;;;;;5.64;88.32;96304.72;5035946;28;19948;-76
2023/04/07 03:00:17;;;;;;;;;;;;;;;5.67;88.77;96301.75;5036158;28;19944;-71
2023/04/07 03:02:43;;;;;;;;;;;;;;;5.69;89.21;96304.94;5018207;28;19992;-71
2023/04/07 03:05:09;;;;;;;;;;;;;;;5.72;89.30;96306.38;5035727;28;19948;-71
2023/04/07 03:07:35;;;;;;;;;;;;;;;5.74;89.35;96304.41;5035753;28;19947;-71
2023/04/07 03:10:01;;;;;;;;;;;;;;;5.74;89.30;96297.38;5035565;28;20046;-71
2023/04/07 03:12:26;;;;;;;;;;;;;;;5.76;89.40;96295.41;5035433;28;20407;-72
2023/04/07 03:14:52;;;;;;;;;;;;;;;5.75;88.60;96285.97;5035706;28;19994;-81
2023/04/07 03:17:18;;;;;;;;;;;;;;;5.77;88.27;96283.19;5036020;28;19966;-75
2023/04/07 03:19:45;;;;;;;;;;;;;;;5.74;90.57;96287.00;5036268;28;20407;-75
2023/04/07 03:22:11;;;;;;;;;;;;;;;5.71;91.84;96287.34;5035362;28;19941;-75
2023/04/07 03:24:39;;;;;;;;;;;;;;;5.68;90.65;96277.34;5035378;28;19944;-74
2023/04/07 03:27:05;;;;;;;;;;;;;;;5.65;90.85;96273.31;5035295;28;19947;-75
2023/04/07 03:29:31;;;;;;;;;;;;;;;5.60;89.34;96272.28;5036010;28;19995;-74
2023/04/07 03:31:56;;;;;;;;;;;;;;;5.57;89.69;96277.88;5035217;28;19950;-73
2023/04/07 03:34:22;;;;;;;;;;;;;;;5.56;90.40;96281.47;5035238;28;19942;-81
2023/04/07 03:36:48;;;;;;;;;;;;;;;5.55;89.41;96280.66;5035101;28;19959;-70
2023/04/07 03:39:14;;;;;;;;;;;;;;;5.54;89.11;96275.63;5035199;28;19944;-70
2023/04/07 03:41:40;;;;;;;;;;;;;;;5.52;89.20;96272.44;5017491;28;19942;-70
2023/04/07 03:44:06;;;;;;;;;;;;;;;5.52;89.49;96268.03;5035820;28;19986;-70
2023/04/07 03:46:32;;;;;;;;;;;;;;;5.55;90.50;96265.06;5034970;28;19947;-70
2023/04/07 03:48:58;;;;;;;;;;;;;;;5.58;90.60;96267.25;5034862;28;19949;-70
2023/04/07 03:51:23;;;;;;;;;;;;;;;5.58;89.51;96266.47;5034931;28;19944;-71
2023/04/07 03:53:50;;;;;;;;;;;;;;;5.59;89.94;96268.88;5034803;28;19939;-81
2023/04/07 03:56:16;;;;;;;;;;;;;;;5.61;89.50;96258.28;5017004;28;19948;-82
2023/04/07 03:58:43;;;;;;;;;;;;;;;5.61;89.01;96248.69;5034751;28;19948;-81
2023/04/07 04:01:09;;;;;;;;;;;;;;;5.62;89.91;96258.09;5035250;28;19952;-82
2023/04/07 04:03:35;;;;;;;;;;;;;;;5.62;89.64;96260.69;5034654;28;19937;-81
2023/04/07 04:06:00;;;;;;;;;;;;;;;5.64;90.29;96256.09;5034984;28;19948;-82
2023/04/07 04:08:26;;;;;;;;;;;;;;;5.64;90.10;96263.91;5034614;28;19942;-71
2023/04/07 04:10:52;;;;;;;;;;;;;;;5.67;90.20;96260.13;5034466;28;19959;-71
2023/04/07 04:13:18;;;;;;;;;;;;;;;5.66;90.65;96259.31;5034230;28;20525;-76
2023/04/07 04:15:44;;;;;;;;;;;;;;;5.68;90.36;96246.91;5034422;28;19950;-75
2023/04/07 04:18:10;;;;;;;;;;;;;;;5.68;89.85;96243.53;5034401;28;19953;-76
2023/04/07 04:20:36;;;;;;;;;;;;;;;5.68;89.84;96248.72;5034893;28;19953;-75
2023/04/07 04:23:03;;;;;;;;;;;;;;;5.68;90.59;96243.53;5034384;28;19939;-76
2023/04/07 04:25:28;;;;;;;;;;;;;;;5.68;90.40;96253.91;5034282;28;20382;-76
2023/04/07 04:27:54;;;;;;;;;;;;;;;5.68;91.39;96256.53;5034268;28;19941;-71
2023/04/07 04:30:20;;;;;;;;;;;;;;;5.67;90.52;96245.31;5034167;28;19976;-73
2023/04/07 04:32:46;;;;;;;;;;;;;;;5.66;90.68;96246.31;5034926;28;20376;-73
2023/04/07 04:35:12;;;;;;;;;;;;;;;5.67;91.24;96257.53;5034062;28;19983;-73
2023/04/07 04:37:38;;;;;;;;;;;;;;;5.65;90.83;96252.50;5033946;28;19958;-73
2023/04/07 04:40:07;;;;;;;;;;;;;;;5.65;90.98;96239.50;5033924;28;19937;-74
2023/04/07 04:42:33;;;;;;;;;;;;;;;5.64;91.23;96248.28;5034036;28;20407;-73
2023/04/07 04:44:59;;;;;;;;;;;;;;;5.64;90.83;96245.69;5033900;28;20283;-74
2023/04/07 04:47:25;;;;;;;;;;;;;;;5.63;90.93;96241.50;5033969;28;19950;-78
2023/04/07 04:49:51;;;;;;;;;;;;;;;5.63;90.99;96244.09;5033822;28;19960;-70
2023/04/07 04:52:16;;;;;;;;;;;;;;;5.63;91.44;96251.91;5033826;28;19945;-70
2023/04/07 04:54:42;;;;;;;;;;;;;;;5.62;91.26;96250.28;5033852;28;19943;-70
2023/04/07 04:57:08;;;;;;;;;;;;;;;5.62;91.44;96257.28;5033837;28;19948;-70
2023/04/07 04:59:34;;;;;;;;;;;;;;;5.61;91.22;96251.28;5033751;28;19938;-70
2023/04/07 05:02:00;;;;;;;;;;;;;;;5.58;92.32;96259.47;5016938;28;20001;-71
2023/04/07 05:04:27;;;;;;;;;;;;;;;5.57;91.88;96252.66;5034068;28;19944;-74
2023/04/07 05:06:52;;;;;;;;;;;;;;;5.56;91.84;96251.03;5033654;28;19969;-76
2023/04/07 05:09:18;;;;;;;;;;;;;;;5.56;91.64;96251.03;5034441;28;20379;-75
2023/04/07 05:11:44;;;;;;;;;;;;;;;5.57;91.79;96259.66;5033966;28;19946;-75
2023/04/07 05:14:10;;;;;;;;;;;;;;;5.55;92.18;96259.84;5033602;28;20434;-75
2023/04/07 05:16:36;;;;;;;;;;;;;;;5.55;92.23;96266.84;5033646;28;19973;-75
2023/04/07 05:19:02;;;;;;;;;;;;;;;5.56;91.84;96265.84;5033611;28;19982;-76
2023/04/07 05:21:28;;;;;;;;;;;;;;;5.55;92.56;96261.66;5034140;28;20033;-75
2023/04/07 05:23:53;;;;;;;;;;;;;;;5.55;92.63;96262.44;5034432;28;19936;-74
2023/04/07 05:26:20;;;;;;;;;;;;;;;5.57;92.47;96272.69;5033758;28;19964;-75
2023/04/07 05:28:46;;;;;;;;;;;;;;;5.57;92.58;96268.28;5033445;28;19946;-74
2023/04/07 05:31:12;;;;;;;;;;;;;;;5.59;92.62;96270.69;5033362;28;20041;-74
2023/04/07 05:33:38;;;;;;;;;;;;;;;5.61;93.86;96269.50;5033567;28;20325;-74
2023/04/07 05:36:04;;;;;;;;;;;;;;;5.61;93.35;96269.50;5033305;28;19958;-75
2023/04/07 05:38:30;;;;;;;;;;;;;;;5.62;93.09;96265.88;5033538;28;19950;-74
2023/04/07 05:40:55;;;;;;;;;;;;;;;5.63;92.79;96258.91;5033347;28;19940;-72
2023/04/07 05:43:21;;;;;;;;;;;;;;;5.65;93.00;96259.53;5034175;28;19992;-75
2023/04/07 05:45:47;;;;;;;;;;;;;;;5.68;93.18;96261.72;5033411;28;19946;-82
2023/04/07 05:48:13;;;;;;;;;;;;;;;5.70;93.38;96259.75;5033340;28;19979;-82
2023/04/07 05:50:39;;;;;;;;;;;;;;;5.73;92.43;96255.94;5015950;28;20337;-82
2023/04/07 05:53:05;;;;;;;;;;;;;;;5.75;91.89;96254.75;5033266;28;19944;-82
2023/04/07 05:55:31;;;;;;;;;;;;;;;5.78;92.77;96262.19;5033268;28;19940;-82
2023/04/07 05:57:57;;;;;;;;;;;;;;;5.81;92.40;96259.19;5033231;28;19961;-83
2023/04/07 06:00:22;;;;;;;;;;;;;;;5.85;92.29;96260.41;5033234;28;19938;-79
2023/04/07 06:02:48;;;;;;;;;;;;;;;5.91;91.73;96261.44;5033686;28;19946;-79
2023/04/07 06:05:14;;;;;;;;;;;;;;;5.98;92.20;96264.91;5033160;28;20423;-78
2023/04/07 06:07:40;;;;;;;;;;;;;;;6.06;91.95;96264.75;5033469;28;20054;-79
2023/04/07 06:10:06;;;;;;;;;;;;;;;6.15;90.88;96257.56;5033806;28;19965;-79
2023/04/07 06:12:32;;;;;;;;;;;;;;;6.23;91.01;96260.00;5036758;28;20413;-80
2023/04/07 06:14:58;;;;;;;;;;;;;;;6.34;90.23;96248.25;5036943;28;19997;-79
2023/04/07 06:17:24;;;;;;;;;;;;;;;6.47;89.60;96244.88;5019411;28;19953;-71
2023/04/07 06:19:50;;;;;;;;;;;;;;;6.54;88.71;96235.28;5019057;28;19940;-73
2023/04/07 06:22:15;;;;;;;;;;;;;;;6.61;87.52;96230.84;5036468;28;19991;-73
2023/04/07 06:24:41;;;;;;;;;;;;;;;6.70;86.96;96224.47;5036445;28;20396;-73
2023/04/07 06:27:07;;;;;;;;;;;;;;;6.86;87.03;96235.50;5036406;28;19945;-73
2023/04/07 06:29:33;;;;;;;;;;;;;;;7.30;86.74;96231.50;5036842;28;20408;-73
2023/04/07 06:31:59;;;;;;;;;;;;;;;8.11;83.38;96209.41;5036280;28;20355;-73
2023/04/07 06:34:25;;;;;;;;;;;;;;;8.63;80.01;96181.44;5036280;28;20007;-73
2023/04/07 06:36:51;;;;;;;;;;;;;;;8.68;78.99;96178.16;5036229;28;19986;-74
2023/04/07 06:39:17;;;;;;;;;;;;;;;8.74;77.88;96178.13;5036809;28;19945;-70
2023/04/07 06:41:43;;;;;;;;;;;;;;;8.91;77.18;96173.16;5036746;28;19947;-70
2023/04/07 06:44:11;;;;;;;;;;;;;;;9.11;76.94;96175.63;5036121;28;19945;-71
2023/04/07 06:46:38;;;;;;;;;;;;;;;9.22;76.21;96171.50;5036934;28;19944;-70
2023/04/07 06:49:04;;;;;;;;;;;;;;;9.20;76.71;96185.78;5036013;28;19942;-71
2023/04/07 06:51:30;;;;;;;;;;;;;;;9.19;76.00;96178.97;5035971;28;19958;-70
2023/04/07 06:53:56;;;;;;;;;;;;;;;9.06;77.00;96193.75;5035960;28;19948;-74
2023/04/07 06:56:22;;;;;;;;;;;;;;;9.05;76.69;96197.41;5035914;28;20042;-72
2023/04/07 06:58:48;;;;;;;;;;;;;;;8.93;77.25;96193.88;5036563;28;19945;-75
2023/04/07 07:01:14;;;;;;;;;;;;;;;8.78;76.76;96190.75;5035746;28;20027;-76
2023/04/07 07:03:40;;;;;;;;;;;;;;;8.59;77.25;96195.09;5035730;28;19951;-75
2023/04/07 07:06:06;;;;;;;;;;;;;;;8.31;77.24;96186.59;5035705;28;19990;-75
2023/04/07 07:08:32;;;;;;;;;;;;;;;8.20;78.89;96197.72;5036035;28;19952;-75
2023/04/07 07:10:58;;;;;;;;;;;;;;;8.20;79.58;96213.38;5036084;28;19962;-76
2023/04/07 07:13:25;;;;;;;;;;;;;;;8.25;78.90;96202.31;5035749;28;20343;-74
2023/04/07 07:15:51;;;;;;;;;;;;;;;8.28;81.33;96218.38;5035905;28;20283;-73
2023/04/07 07:18:18;;;;;;;;;;;;;;;8.41;81.23;96219.34;5035427;28;19956;-73
2023/04/07 07:20:44;;;;;;;;;;;;;;;8.46;78.10;96201.22;5036253;28;19941;-73
2023/04/07 07:23:10;;;;;;;;;;;;;;;8.74;78.53;96198.25;5034742;28;19941;-73
2023/04/07 07:25:36;;;;;;;;;;;;;;;9.17;77.25;96196.69;5035327;28;19939;-73
2023/04/07 07:28:02;;;;;;;;;;;;;;;9.51;76.20;96204.03;5036111;28;19937;-73
2023/04/07 07:30:27;;;;;;;;;;;;;;;9.93;76.05;96192.88;5035269;28;19955;-73
2023/04/07 07:32:54;;;;;;;;;;;;;;;10.40;73.93;96187.09;5035300;28;19940;-71
2023/04/07 07:35:20;;;;;;;;;;;;;;;10.70;70.89;96171.34;5036117;28;19946;-71
2023/04/07 07:37:46;;;;;;;;;;;;;;;10.90;69.85;96160.53;5035208;28;20343;-71
2023/04/07 07:40:12;;;;;;;;;;;;;;;10.77;70.55;96172.84;5035200;28;19943;-72
2023/04/07 07:42:38;;;;;;;;;;;;;;;10.47;70.98;96183.34;5035065;28;20374;-71
2023/04/07 07:45:04;;;;;;;;;;;;;;;10.49;72.36;96191.00;5035211;28;19944;-72
2023/04/07 07:47:30;;;;;;;;;;;;;;;10.73;68.97;96168.25;5035716;28;19939;-72
2023/04/07 07:49:56;;;;;;;;;;;;;;;10.96;70.49;96173.56;5034876;28;19945;-76
2023/04/07 07:52:22;;;;;;;;;;;;;;;11.33;68.77;96169.91;5034824;28;19941;-75
2023/04/07 07:54:49;;;;;;;;;;;;;;;11.43;65.74;96170.13;5034912;28;19939;-86
2023/04/07 07:57:14;;;;;;;;;;;;;;;11.63;68.46;96180.25;5035176;28;20309;-86
2023/04/07 07:59:40;;;;;;;;;;;;;;;11.89;67.13;96170.31;5035047;28;19941;-83
2023/04/07 08:02:07;;;;;;;;;;;;;;;12.10;64.43;96174.13;5034997;28;20033;-83
2023/04/07 08:04:34;;;;;;;;;;;;;;;12.05;61.84;96168.78;5035117;28;19939;-84
2023/04/07 08:07:00;;;;;;;;;;;;;;;12.06;63.97;96186.94;5035102;28;19965;-84
2023/04/07 08:09:26;;;;;;;;;;;;;;;12.04;64.20;96181.13;5035184;28;19941;-76
2023/04/07 08:11:52;;;;;;;;;;;;;;;12.21;64.14;96183.81;5034642;28;19959;-74
2023/04/07 08:14:18;;;;;;;;;;;;;;;12.19;63.48;96191.13;5034198;28;20020;-74
2023/04/07 08:16:44;;;;;;;;;;;;;;;12.25;63.04;96192.81;5034338;28;19943;-75
2023/04/07 08:19:10;;;;;;;;;;;;;;;12.36;63.55;96209.59;5034273;28;19939;-74
2023/04/07 08:21:36;;;;;;;;;;;;;;;12.48;65.46;96205.09;5034341;28;19970;-74
2023/04/07 08:24:02;;;;;;;;;;;;;;;12.46;64.29;96193.22;5034693;28;20383;-75
2023/04/07 08:26:28;;;;;;;;;;;;;;;12.42;64.39;96200.75;5034214;28;20407;-74
2023/04/07 08:28:54;;;;;;;;;;;;;;;12.41;63.11;96196.53;5034391;28;19986;-70
2023/04/07 08:31:20;;;;;;;;;;;;;;;12.34;63.42;96191.41;5035035;28;19961;-70
2023/04/07 08:33:46;;;;;;;;;;;;;;;12.22;64.08;96200.38;5034064;28;20415;-70
2023/04/07 08:36:12;;;;;;;;;;;;;;;12.30;63.43;96195.53;5034021;28;19993;-70
2023/04/07 08:38:38;;;;;;;;;;;;;;;12.39;63.23;96194.16;5017279;28;19942;-71
2023/04/07 08:41:12;;;;;;;;;;;;;;;12.51;62.62;96183.56;5034006;28;19946;-70
2023/04/07 08:43:38;;;;;;;;;;;;;;;12.91;65.44;96201.06;5034314;28;19939;-70
2023/04/07 08:46:04;;;;;;;;;;;;;;;13.15;62.46;96190.41;5034829;28;20379;-72
2023/04/07 08:48:33;;;;;;;;;;;;;;;13.23;59.74;96182.09;5033905;28;19939;-69
2023/04/07 08:51:09;;;;;;;;;;;;;;;13.44;63.35;96201.66;5033793;28;19969;-70
2023/04/07 08:53:49;;;;;;;;;;;;;;;13.67;61.76;96195.41;5034936;28;19948;-70
2023/04/07 08:56:16;;;;;;;;;;;;;;;13.85;60.13;96182.97;5034862;28;19942;-70
2023/04/07 08:58:42;;;;;;;;;;;;;;;13.95;60.47;96191.78;5034111;28;19955;-70
2023/04/07 09:01:09;;;;;;;;;;;;;;;14.03;59.08;96190.56;5034599;28;19935;-70
2023/04/07 09:03:35;;;;;;;;;;;;;;;13.95;57.77;96193.63;5033809;28;19940;-71
2023/04/07 09:06:01;;;;;;;;;;;;;;;13.84;58.40;96190.06;5034466;28;19934;-70
2023/04/07 09:08:27;;;;;;;;;;;;;;;13.79;61.15;96213.72;5033599;28;19974;-71
2023/04/07 09:10:53;;;;;;;;;;;;;;;13.90;60.98;96215.47;5033553;28;19954;-71
2023/04/07 09:13:19;;;;;;;;;;;;;;;13.93;60.61;96201.78;5033907;28;19972;-72
2023/04/07 09:15:45;;;;;;;;;;;;;;;14.02;61.10;96212.69;5033511;28;19952;-71
2023/04/07 09:18:13;;;;;;;;;;;;;;;14.11;56.94;96191.97;5033068;28;21614;-71
2023/04/07 09:20:58;;;;;;;;;;;;;;;14.07;59.90;96210.13;5033457;28;19955;-72
2023/04/07 09:23:31;;;;;;;;;;;;;;;14.13;60.81;96210.97;5033618;28;19952;-74
2023/04/07 09:26:00;;;;;;;;;;;;;;;13.97;60.01;96208.16;5034321;28;19940;-85
2023/04/07 09:28:42;;;;;;;;;;;;;;;13.73;59.33;96212.88;5016806;28;20317;-85
2023/04/07 09:31:08;;;;;;;;;;;;;;;13.67;58.66;96205.94;5035541;28;19958;-85
2023/04/07 09:33:35;;;;;;;;;;;;;;;13.62;59.26;96208.47;5035934;28;20381;-84
2023/04/07 09:36:01;;;;;;;;;;;;;;;13.58;57.79;96194.19;5034141;28;20316;-85
2023/04/07 09:38:34;;;;;;;;;;;;;;;13.80;59.49;96213.47;5034772;28;19969;-85
2023/04/07 09:41:10;;;;;;;;;;;;;;;13.89;56.15;96202.50;5033650;28;19935;-71
2023/04/07 09:43:37;;;;;;;;;;;;;;;13.93;56.77;96214.97;5016496;28;20288;-74
2023/04/07 09:46:10;;;;;;;;;;;;;;;14.05;56.71;96211.41;5016896;28;19945;-74
2023/04/07 09:48:37;;;;;;;;;;;;;;;13.90;55.14;96201.47;5019547;28;20305;-73
2023/04/07 09:51:06;;;;;;;;;;;;;;;13.70;56.90;96210.69;5019291;28;19965;-71
2023/04/07 09:54:02;;;;;;;;;;;;;;;13.45;58.14;96224.31;5037613;28;20396;-70
2023/04/07 09:56:27;;;;;;;;;;;;;;;12.87;59.24;96225.47;5010868;28;19945;-70
2023/04/07 09:58:54;;;;;;;;;;;;;;;12.46;59.89;96238.72;5037003;28;19946;-71
2023/04/07 10:01:20;;;;;;;;;;;;;;;12.18;60.18;96231.59;5037799;28;19943;-85
2023/04/07 10:03:47;;;;;;;;;;;;;;;11.96;62.21;96247.19;5036758;28;20395;-75
2023/04/07 10:06:13;;;;;;;;;;;;;;;11.86;63.57;96247.72;5036987;28;19942;-75
2023/04/07 10:08:40;;;;;;;;;;;;;;;11.72;65.11;96262.16;5036737;28;20041;-75
2023/04/07 10:11:06;;;;;;;;;;;;;;;11.62;67.26;96273.22;5037206;28;19961;-74
2023/04/07 10:13:33;;;;;;;;;;;;;;;11.43;66.39;96269.91;5036482;28;19974;-73
2023/04/07 10:16:01;;;;;;;;;;;;;;;11.20;70.54;96283.00;5037682;28;19956;-73
2023/04/07 10:18:29;;;;;;;;;;;;;;;11.03;72.23;96286.28;5036629;28;19953;-73
2023/04/07 10:20:55;;;;;;;;;;;;;;;10.94;72.89;96284.97;5036477;28;20417;-82
2023/04/07 10:23:24;;;;;;;;;;;;;;;10.82;74.37;96286.78;5037083;28;19977;-82
2023/04/07 10:25:52;;;;;;;;;;;;;;;10.74;76.23;96295.75;5036467;28;19955;-80
2023/04/07 10:28:20;;;;;;;;;;;;;;;10.69;77.64;96295.63;5036402;28;20126;-79
2023/04/07 10:30:46;;;;;;;;;;;;;;;10.57;76.96;96292.94;5036347;28;20407;-78
2023/04/07 10:33:12;;;;;;;;;;;;;;;10.40;77.91;96308.47;5037165;28;19945;-78
2023/04/07 10:35:57;;;;;;;;;;;;;;;10.31;77.82;96291.44;5036512;28;19939;-69
2023/04/07 10:38:22;;;;;;;;;;;;;;;10.23;80.53;96304.84;5036228;28;19940;-70
2023/04/07 10:40:48;;;;;;;;;;;;;;;10.22;83.92;96311.88;5037015;28;19939;-70
2023/04/07 10:43:34;;;;;;;;;;;;;;;10.21;85.25;96306.88;5036140;28;19946;-70
2023/04/07 10:46:00;;;;;;;;;;;;;;;10.19;85.26;96314.94;5036828;28;20299;-70
2023/04/07 10:48:27;;;;;;;;;;;;;;;10.08;86.29;96292.06;5036084;28;20040;-69
2023/04/07 10:51:06;;;;;;;;;;;;;;;9.96;85.10;96298.03;5035890;28;20327;-70
2023/04/07 10:53:35;;;;;;;;;;;;;;;9.88;84.40;96295.69;5036531;28;19941;-77
2023/04/07 10:56:01;;;;;;;;;;;;;;;9.86;85.79;96302.97;5018189;28;19950;-69
2023/04/07 10:58:28;;;;;;;;;;;;;;;9.81;83.44;96284.50;5034766;28;19951;-72
2023/04/07 11:01:00;;;;;;;;;;;;;;;9.78;84.21;96286.75;5035807;28;20423;-72
2023/04/07 11:03:27;;;;;;;;;;;;;;;9.84;84.94;96296.34;5036575;28;19971;-73
2023/04/07 11:06:02;;;;;;;;;;;;;;;9.89;85.33;96292.06;5035686;28;19951;-74
2023/04/07 11:08:34;;;;;;;;;;;;;;;9.97;85.40;96298.81;5035856;28;19936;-74
2023/04/07 11:11:00;;;;;;;;;;;;;;;10.03;86.21;96300.59;5035454;28;19963;-74
2023/04/07 11:13:26;;;;;;;;;;;;;;;10.08;85.84;96300.75;5035862;28;20443;-77
2023/04/07 11:15:52;;;;;;;;;;;;;;;10.10;87.27;96301.34;5035511;28;19947;-72
2023/04/07 11:18:22;;;;;;;;;;;;;;;10.06;79.52;96253.00;5035986;28;19943;-72
2023/04/07 11:20:52;;;;;;;;;;;;;;;9.97;82.50;96270.00;5035642;28;19939;-72
2023/04/07 11:23:20;;;;;;;;;;;;;;;9.91;81.17;96271.69;5035323;28;19951;-73
2023/04/07 11:25:47;;;;;;;;;;;;;;;9.98;83.51;96276.06;5035523;28;19955;-72
2023/04/07 11:28:13;;;;;;;;;;;;;;;10.10;84.41;96287.41;5035822;28;19939;-72
2023/04/07 11:30:46;;;;;;;;;;;;;;;10.20;78.47;96255.47;5035482;28;19992;-73
2023/04/07 11:33:16;;;;;;;;;;;;;;;10.30;80.58;96274.13;5035780;28;20379;-74
2023/04/07 11:35:52;;;;;;;;;;;;;;;10.43;82.39;96275.78;5035790;28;19948;-74
2023/04/07 11:38:19;;;;;;;;;;;;;;;10.56;83.43;96279.03;5035149;28;19938;-74
2023/04/07 11:40:46;;;;;;;;;;;;;;;10.68;80.31;96265.16;5035617;28;19949;-74
2023/04/07 11:43:19;;;;;;;;;;;;;;;10.75;77.85;96250.13;5034989;28;19940;-73
2023/04/07 11:45:44;;;;;;;;;;;;;;;10.79;76.42;96243.41;5034972;28;19939;-74
2023/04/07 11:48:30;;;;;;;;;;;;;;;10.84;78.26;96261.13;5035902;28;20438;-74
2023/04/07 11:50:56;;;;;;;;;;;;;;;10.92;78.69;96268.69;5034802;28;19977;-73
2023/04/07 11:53:26;;;;;;;;;;;;;;;11.02;79.08;96265.50;5034812;28;19952;-70
2023/04/07 11:56:18;;;;;;;;;;;;;;;11.13;77.74;96257.66;5035329;28;19953;-70
2023/04/07 11:58:47;;;;;;;;;;;;;;;11.27;78.85;96263.47;5033103;28;19951;-70
2023/04/07 12:01:13;;;;;;;;;;;;;;;11.45;73.58;96236.34;5035228;28;19945;-70
2023/04/07 12:03:53;;;;;;;;;;;;;;;11.78;79.64;96269.13;5034635;28;19943;-70
2023/04/07 12:06:37;;;;;;;;;;;;;;;12.18;79.88;96273.66;5035024;28;20288;-70
2023/04/07 12:09:04;;;;;;;;;;;;;;;12.54;78.26;96264.63;5034826;28;20385;-79
2023/04/07 12:11:30;;;;;;;;;;;;;;;12.80;74.46;96247.47;5016979;28;20420;-73
2023/04/07 12:13:56;;;;;;;;;;;;;;;12.93;75.06;96245.59;5034589;28;19969;-73
2023/04/07 12:16:23;;;;;;;;;;;;;;;12.78;74.03;96240.84;5034613;28;20003;-73
2023/04/07 12:18:50;;;;;;;;;;;;;;;12.77;75.81;96255.84;5034358;28;20410;-73
2023/04/07 12:21:16;;;;;;;;;;;;;;;12.85;70.90;96241.53;5034214;28;19940;-72
2023/04/07 12:23:42;;;;;;;;;;;;;;;12.76;70.84;96248.97;5034305;28;19950;-73
2023/04/07 12:26:10;;;;;;;;;;;;;;;12.98;70.02;96246.47;5035140;28;19941;-74
2023/04/07 12:28:36;;;;;;;;;;;;;;;13.20;71.93;96256.28;5035028;28;19950;-80
2023/04/07 12:31:03;;;;;;;;;;;;;;;13.24;70.84;96264.53;5034133;28;19964;-83
2023/04/07 12:33:29;;;;;;;;;;;;;;;13.12;67.20;96236.44;5034013;28;19941;-83
2023/04/07 12:35:55;;;;;;;;;;;;;;;12.88;67.06;96242.88;5033998;28;19955;-84
2023/04/07 12:38:21;;;;;;;;;;;;;;;12.59;68.70;96253.41;5034175;28;20320;-83
2023/04/07 12:40:47;;;;;;;;;;;;;;;12.37;69.62;96267.22;5034801;28;19946;-84
2023/04/07 12:43:13;;;;;;;;;;;;;;;12.18;69.97;96271.84;5034112;28;20400;-84
2023/04/07 12:45:39;;;;;;;;;;;;;;;11.99;70.38;96273.00;5034803;28;20037;-73
2023/04/07 12:48:05;;;;;;;;;;;;;;;11.85;72.81;96290.81;5034192;28;19945;-70
2023/04/07 12:50:34;;;;;;;;;;;;;;;11.75;73.94;96293.22;5012299;28;19952;-69
2023/04/07 12:53:02;;;;;;;;;;;;;;;11.54;75.87;96307.69;5012792;28;19955;-70
2023/04/07 12:55:29;;;;;;;;;;;;;;;11.42;77.61;96315.56;4995741;28;20358;-68